sensor_id;sensor_type;location;lat;lon;timestamp;P1;durP1;ratioP1;P2;durP2;ratioP2
15673;SDS011;7937;48.090;16.212;2022-11-11T00:02:41;7.60;;;4.27;;
15673;SDS011;7937;48.090;16.212;2022-11-11T00:06:02;5.07;;;4.27;;
15673;SDS011;7937;48.090;16.212;2022-11-11T00:09:24;5.27;;;4.50;;
15673;SDS011;7937;48.090;16.212;2022-11-11T00:12:44;7.80;;;4.00;;
15673;SDS011;7937;48.090;16.212;2022-11-11T00:16:06;6.07;;;4.50;;
15673;SDS011;7937;48.090;16.212;2022-11-11T00:19:31;6.83;;;4.73;;
15673;SDS011;7937;48.090;16.212;2022-11-11T00:23:21;6.63;;;3.83;;
15673;SDS011;7937;48.090;16.212;2022-11-11T00:27:04;3.90;;;3.50;;
15673;SDS011;7937;48.090;16.212;2022-11-11T00:30:26;5.10;;;4.13;;
15673;SDS011;7937;48.090;16.212;2022-11-11T00:33:46;10.30;;;4.57;;
15673;SDS011;7937;48.090;16.212;2022-11-11T00:37:07;6.23;;;4.50;;
15673;SDS011;7937;48.090;16.212;2022-11-11T00:40:28;6.83;;;4.57;;
15673;SDS011;7937;48.090;16.212;2022-11-11T00:43:48;7.50;;;4.27;;
15673;SDS011;7937;48.090;16.212;2022-11-11T00:47:09;7.40;;;4.50;;
15673;SDS011;7937;48.090;16.212;2022-11-11T00:50:49;7.40;;;4.80;;
15673;SDS011;7937;48.090;16.212;2022-11-11T00:54:18;8.40;;;4.87;;
15673;SDS011;7937;48.090;16.212;2022-11-11T00:57:39;9.17;;;5.40;;
15673;SDS011;7937;48.090;16.212;2022-11-11T01:01:00;8.20;;;5.70;;
15673;SDS011;7937;48.090;16.212;2022-11-11T01:04:21;12.00;;;5.93;;
15673;SDS011;7937;48.090;16.212;2022-11-11T01:07:42;5.90;;;5.00;;
15673;SDS011;7937;48.090;16.212;2022-11-11T01:11:03;6.93;;;5.00;;
15673;SDS011;7937;48.090;16.212;2022-11-11T01:14:24;10.73;;;6.40;;
15673;SDS011;7937;48.090;16.212;2022-11-11T01:17:44;9.67;;;6.70;;
15673;SDS011;7937;48.090;16.212;2022-11-11T01:21:06;7.60;;;6.13;;
15673;SDS011;7937;48.090;16.212;2022-11-11T01:24:30;10.20;;;6.67;;
15673;SDS011;7937;48.090;16.212;2022-11-11T01:27:50;9.97;;;6.07;;
15673;SDS011;7937;48.090;16.212;2022-11-11T01:31:12;8.27;;;5.73;;
15673;SDS011;7937;48.090;16.212;2022-11-11T01:34:33;7.23;;;5.53;;
15673;SDS011;7937;48.090;16.212;2022-11-11T01:37:55;6.73;;;5.07;;
15673;SDS011;7937;48.090;16.212;2022-11-11T01:41:19;7.17;;;4.77;;
15673;SDS011;7937;48.090;16.212;2022-11-11T01:44:54;7.37;;;5.07;;
15673;SDS011;7937;48.090;16.212;2022-11-11T01:48:36;6.40;;;5.10;;
15673;SDS011;7937;48.090;16.212;2022-11-11T01:52:30;10.53;;;4.97;;
15673;SDS011;7937;48.090;16.212;2022-11-11T01:55:52;6.77;;;5.63;;
15673;SDS011;7937;48.090;16.212;2022-11-11T01:59:13;11.80;;;5.30;;
15673;SDS011;7937;48.090;16.212;2022-11-11T02:06:03;7.40;;;5.20;;
15673;SDS011;7937;48.090;16.212;2022-11-11T02:09:24;10.47;;;5.63;;
15673;SDS011;7937;48.090;16.212;2022-11-11T02:12:45;11.37;;;6.63;;
15673;SDS011;7937;48.090;16.212;2022-11-11T02:16:25;9.67;;;6.37;;
15673;SDS011;7937;48.090;16.212;2022-11-11T02:19:51;8.83;;;5.53;;
15673;SDS011;7937;48.090;16.212;2022-11-11T02:23:21;8.43;;;4.60;;
15673;SDS011;7937;48.090;16.212;2022-11-11T02:26:48;5.53;;;4.10;;
15673;SDS011;7937;48.090;16.212;2022-11-11T02:30:17;4.97;;;3.77;;
15673;SDS011;7937;48.090;16.212;2022-11-11T02:33:40;5.73;;;3.50;;
15673;SDS011;7937;48.090;16.212;2022-11-11T02:37:01;4.43;;;3.20;;
15673;SDS011;7937;48.090;16.212;2022-11-11T02:43:53;8.53;;;3.77;;
15673;SDS011;7937;48.090;16.212;2022-11-11T02:47:13;6.23;;;3.00;;
15673;SDS011;7937;48.090;16.212;2022-11-11T02:50:34;5.97;;;3.03;;
15673;SDS011;7937;48.090;16.212;2022-11-11T02:53:55;5.77;;;3.20;;
15673;SDS011;7937;48.090;16.212;2022-11-11T02:57:18;7.40;;;2.50;;
15673;SDS011;7937;48.090;16.212;2022-11-11T03:00:39;3.47;;;2.60;;
15673;SDS011;7937;48.090;16.212;2022-11-11T03:04:02;4.87;;;2.60;;
15673;SDS011;7937;48.090;16.212;2022-11-11T03:07:23;4.33;;;2.73;;
15673;SDS011;7937;48.090;16.212;2022-11-11T03:10:44;5.60;;;2.90;;
15673;SDS011;7937;48.090;16.212;2022-11-11T03:14:05;3.90;;;2.67;;
15673;SDS011;7937;48.090;16.212;2022-11-11T03:17:27;4.20;;;2.80;;
15673;SDS011;7937;48.090;16.212;2022-11-11T03:21:01;4.70;;;2.63;;
15673;SDS011;7937;48.090;16.212;2022-11-11T03:24:44;5.40;;;2.80;;
15673;SDS011;7937;48.090;16.212;2022-11-11T03:28:23;4.93;;;2.87;;
15673;SDS011;7937;48.090;16.212;2022-11-11T03:31:44;3.70;;;3.10;;
15673;SDS011;7937;48.090;16.212;2022-11-11T03:35:05;6.87;;;3.37;;
15673;SDS011;7937;48.090;16.212;2022-11-11T03:38:26;5.17;;;3.50;;
15673;SDS011;7937;48.090;16.212;2022-11-11T03:41:47;3.80;;;3.00;;
15673;SDS011;7937;48.090;16.212;2022-11-11T03:45:08;4.57;;;3.20;;
15673;SDS011;7937;48.090;16.212;2022-11-11T03:48:30;4.60;;;3.87;;
15673;SDS011;7937;48.090;16.212;2022-11-11T03:51:52;10.23;;;5.23;;
15673;SDS011;7937;48.090;16.212;2022-11-11T03:55:13;9.10;;;3.93;;
15673;SDS011;7937;48.090;16.212;2022-11-11T03:58:34;4.80;;;3.00;;
15673;SDS011;7937;48.090;16.212;2022-11-11T04:01:54;3.70;;;2.47;;
15673;SDS011;7937;48.090;16.212;2022-11-11T04:05:34;2.73;;;2.30;;
15673;SDS011;7937;48.090;16.212;2022-11-11T04:09:13;10.20;;;2.97;;
15673;SDS011;7937;48.090;16.212;2022-11-11T04:12:53;3.40;;;2.30;;
15673;SDS011;7937;48.090;16.212;2022-11-11T04:16:33;3.23;;;2.10;;
15673;SDS011;7937;48.090;16.212;2022-11-11T04:19:53;3.03;;;2.70;;
15673;SDS011;7937;48.090;16.212;2022-11-11T04:23:33;4.17;;;3.10;;
15673;SDS011;7937;48.090;16.212;2022-11-11T04:26:54;5.93;;;3.17;;
15673;SDS011;7937;48.090;16.212;2022-11-11T04:30:16;3.87;;;3.47;;
15673;SDS011;7937;48.090;16.212;2022-11-11T04:33:37;4.83;;;3.67;;
15673;SDS011;7937;48.090;16.212;2022-11-11T04:36:57;5.83;;;3.73;;
15673;SDS011;7937;48.090;16.212;2022-11-11T04:40:18;8.47;;;3.70;;
15673;SDS011;7937;48.090;16.212;2022-11-11T04:43:57;6.30;;;4.20;;
15673;SDS011;7937;48.090;16.212;2022-11-11T04:47:37;5.87;;;4.07;;
15673;SDS011;7937;48.090;16.212;2022-11-11T04:50:58;6.23;;;4.30;;
15673;SDS011;7937;48.090;16.212;2022-11-11T04:54:19;6.63;;;4.17;;
15673;SDS011;7937;48.090;16.212;2022-11-11T04:57:40;7.43;;;4.70;;
15673;SDS011;7937;48.090;16.212;2022-11-11T05:01:02;7.50;;;4.30;;
15673;SDS011;7937;48.090;16.212;2022-11-11T05:04:23;5.87;;;4.67;;
15673;SDS011;7937;48.090;16.212;2022-11-11T05:07:43;7.37;;;4.63;;
15673;SDS011;7937;48.090;16.212;2022-11-11T05:11:27;7.33;;;4.50;;
15673;SDS011;7937;48.090;16.212;2022-11-11T05:14:50;5.97;;;4.60;;
15673;SDS011;7937;48.090;16.212;2022-11-11T05:18:29;7.60;;;5.07;;
15673;SDS011;7937;48.090;16.212;2022-11-11T05:22:18;8.33;;;5.10;;
15673;SDS011;7937;48.090;16.212;2022-11-11T05:25:42;7.80;;;5.40;;
15673;SDS011;7937;48.090;16.212;2022-11-11T05:29:03;8.53;;;4.93;;
15673;SDS011;7937;48.090;16.212;2022-11-11T05:32:24;6.00;;;4.50;;
15673;SDS011;7937;48.090;16.212;2022-11-11T05:35:45;7.93;;;5.10;;
15673;SDS011;7937;48.090;16.212;2022-11-11T05:39:05;7.67;;;5.10;;
15673;SDS011;7937;48.090;16.212;2022-11-11T05:42:26;10.57;;;5.40;;
15673;SDS011;7937;48.090;16.212;2022-11-11T05:45:47;6.90;;;4.90;;
15673;SDS011;7937;48.090;16.212;2022-11-11T05:49:08;6.97;;;4.57;;
15673;SDS011;7937;48.090;16.212;2022-11-11T05:52:34;6.97;;;4.87;;
15673;SDS011;7937;48.090;16.212;2022-11-11T05:55:55;9.70;;;5.40;;
15673;SDS011;7937;48.090;16.212;2022-11-11T05:59:15;8.60;;;4.93;;
15673;SDS011;7937;48.090;16.212;2022-11-11T06:02:36;8.70;;;5.57;;
15673;SDS011;7937;48.090;16.212;2022-11-11T06:05:58;7.57;;;4.90;;
15673;SDS011;7937;48.090;16.212;2022-11-11T06:09:18;8.27;;;5.60;;
15673;SDS011;7937;48.090;16.212;2022-11-11T06:12:42;6.77;;;4.30;;
15673;SDS011;7937;48.090;16.212;2022-11-11T06:16:21;9.13;;;5.80;;
15673;SDS011;7937;48.090;16.212;2022-11-11T06:19:43;6.43;;;4.80;;
15673;SDS011;7937;48.090;16.212;2022-11-11T06:23:03;7.40;;;5.20;;
15673;SDS011;7937;48.090;16.212;2022-11-11T06:26:24;7.17;;;4.30;;
15673;SDS011;7937;48.090;16.212;2022-11-11T06:29:45;8.03;;;4.50;;
15673;SDS011;7937;48.090;16.212;2022-11-11T06:33:05;8.13;;;5.40;;
15673;SDS011;7937;48.090;16.212;2022-11-11T06:36:29;6.53;;;5.33;;
15673;SDS011;7937;48.090;16.212;2022-11-11T06:39:50;5.87;;;4.73;;
15673;SDS011;7937;48.090;16.212;2022-11-11T06:43:11;7.83;;;5.23;;
15673;SDS011;7937;48.090;16.212;2022-11-11T06:46:31;7.93;;;4.80;;
15673;SDS011;7937;48.090;16.212;2022-11-11T06:49:52;8.63;;;5.97;;
15673;SDS011;7937;48.090;16.212;2022-11-11T06:53:13;11.57;;;5.33;;
15673;SDS011;7937;48.090;16.212;2022-11-11T06:56:36;7.10;;;4.80;;
15673;SDS011;7937;48.090;16.212;2022-11-11T06:59:56;6.00;;;4.17;;
15673;SDS011;7937;48.090;16.212;2022-11-11T07:03:19;7.00;;;4.80;;
15673;SDS011;7937;48.090;16.212;2022-11-11T07:06:44;9.63;;;5.27;;
15673;SDS011;7937;48.090;16.212;2022-11-11T07:10:05;5.73;;;4.57;;
15673;SDS011;7937;48.090;16.212;2022-11-11T07:13:26;7.00;;;4.23;;
15673;SDS011;7937;48.090;16.212;2022-11-11T07:16:46;6.50;;;4.00;;
15673;SDS011;7937;48.090;16.212;2022-11-11T07:20:07;6.70;;;4.13;;
15673;SDS011;7937;48.090;16.212;2022-11-11T07:23:28;5.07;;;3.73;;
15673;SDS011;7937;48.090;16.212;2022-11-11T07:26:49;8.90;;;4.33;;
15673;SDS011;7937;48.090;16.212;2022-11-11T07:30:10;6.87;;;5.03;;
15673;SDS011;7937;48.090;16.212;2022-11-11T07:33:31;12.10;;;6.97;;
15673;SDS011;7937;48.090;16.212;2022-11-11T07:36:52;7.10;;;4.77;;
15673;SDS011;7937;48.090;16.212;2022-11-11T07:40:13;8.17;;;5.90;;
15673;SDS011;7937;48.090;16.212;2022-11-11T07:43:35;10.83;;;6.50;;
15673;SDS011;7937;48.090;16.212;2022-11-11T07:46:56;9.00;;;6.17;;
15673;SDS011;7937;48.090;16.212;2022-11-11T07:50:16;9.73;;;6.53;;
15673;SDS011;7937;48.090;16.212;2022-11-11T07:53:37;8.77;;;6.10;;
15673;SDS011;7937;48.090;16.212;2022-11-11T07:56:57;11.23;;;7.10;;
15673;SDS011;7937;48.090;16.212;2022-11-11T08:00:18;9.70;;;6.57;;
15673;SDS011;7937;48.090;16.212;2022-11-11T08:03:39;12.43;;;6.77;;
15673;SDS011;7937;48.090;16.212;2022-11-11T08:07:09;10.17;;;6.87;;
15673;SDS011;7937;48.090;16.212;2022-11-11T08:10:30;10.37;;;6.73;;
15673;SDS011;7937;48.090;16.212;2022-11-11T08:13:51;6.70;;;5.53;;
15673;SDS011;7937;48.090;16.212;2022-11-11T08:17:11;7.07;;;5.80;;
15673;SDS011;7937;48.090;16.212;2022-11-11T08:20:32;8.20;;;5.50;;
15673;SDS011;7937;48.090;16.212;2022-11-11T08:23:53;8.77;;;6.97;;
15673;SDS011;7937;48.090;16.212;2022-11-11T08:27:34;7.77;;;5.27;;
15673;SDS011;7937;48.090;16.212;2022-11-11T08:30:59;10.53;;;6.83;;
15673;SDS011;7937;48.090;16.212;2022-11-11T08:34:23;9.57;;;6.33;;
15673;SDS011;7937;48.090;16.212;2022-11-11T08:37:44;7.00;;;5.40;;
15673;SDS011;7937;48.090;16.212;2022-11-11T08:41:05;8.33;;;6.83;;
15673;SDS011;7937;48.090;16.212;2022-11-11T08:44:26;6.63;;;5.90;;
15673;SDS011;7937;48.090;16.212;2022-11-11T08:47:47;7.90;;;5.67;;
15673;SDS011;7937;48.090;16.212;2022-11-11T08:51:08;6.13;;;5.53;;
15673;SDS011;7937;48.090;16.212;2022-11-11T08:54:28;8.27;;;5.43;;
15673;SDS011;7937;48.090;16.212;2022-11-11T08:57:56;6.60;;;5.93;;
15673;SDS011;7937;48.090;16.212;2022-11-11T09:01:18;6.87;;;5.47;;
15673;SDS011;7937;48.090;16.212;2022-11-11T09:04:39;5.33;;;4.83;;
15673;SDS011;7937;48.090;16.212;2022-11-11T09:08:06;6.80;;;6.20;;
15673;SDS011;7937;48.090;16.212;2022-11-11T09:11:27;6.63;;;5.37;;
15673;SDS011;7937;48.090;16.212;2022-11-11T09:14:56;9.43;;;6.83;;
15673;SDS011;7937;48.090;16.212;2022-11-11T09:18:16;9.07;;;6.07;;
15673;SDS011;7937;48.090;16.212;2022-11-11T09:21:37;6.00;;;5.07;;
15673;SDS011;7937;48.090;16.212;2022-11-11T09:24:57;6.63;;;4.40;;
15673;SDS011;7937;48.090;16.212;2022-11-11T09:28:17;5.27;;;3.97;;
15673;SDS011;7937;48.090;16.212;2022-11-11T09:31:38;5.07;;;4.53;;
15673;SDS011;7937;48.090;16.212;2022-11-11T09:35:04;4.00;;;3.33;;
15673;SDS011;7937;48.090;16.212;2022-11-11T09:38:25;5.07;;;3.70;;
15673;SDS011;7937;48.090;16.212;2022-11-11T09:42:48;4.40;;;3.13;;
15673;SDS011;7937;48.090;16.212;2022-11-11T09:49:27;3.87;;;2.67;;
15673;SDS011;7937;48.090;16.212;2022-11-11T09:56:17;2.43;;;2.07;;
15673;SDS011;7937;48.090;16.212;2022-11-11T09:59:51;3.37;;;1.67;;
15673;SDS011;7937;48.090;16.212;2022-11-11T10:03:16;4.30;;;1.57;;
15673;SDS011;7937;48.090;16.212;2022-11-11T10:06:37;3.57;;;1.80;;
15673;SDS011;7937;48.090;16.212;2022-11-11T10:10:00;2.60;;;1.30;;
15673;SDS011;7937;48.090;16.212;2022-11-11T10:13:28;2.27;;;1.20;;
15673;SDS011;7937;48.090;16.212;2022-11-11T10:16:53;1.53;;;1.20;;
15673;SDS011;7937;48.090;16.212;2022-11-11T10:23:51;1.30;;;0.90;;
15673;SDS011;7937;48.090;16.212;2022-11-11T10:27:20;1.73;;;1.10;;
15673;SDS011;7937;48.090;16.212;2022-11-11T10:30:42;2.33;;;1.30;;
15673;SDS011;7937;48.090;16.212;2022-11-11T10:34:08;5.03;;;2.23;;
15673;SDS011;7937;48.090;16.212;2022-11-11T10:37:40;4.50;;;2.37;;
15673;SDS011;7937;48.090;16.212;2022-11-11T10:41:09;4.37;;;2.50;;
15673;SDS011;7937;48.090;16.212;2022-11-11T10:44:35;4.90;;;2.90;;
15673;SDS011;7937;48.090;16.212;2022-11-11T10:51:24;4.13;;;2.97;;
15673;SDS011;7937;48.090;16.212;2022-11-11T10:54:51;7.10;;;4.30;;
15673;SDS011;7937;48.090;16.212;2022-11-11T10:58:24;5.57;;;4.70;;
15673;SDS011;7937;48.090;16.212;2022-11-11T11:01:55;5.67;;;4.43;;
15673;SDS011;7937;48.090;16.212;2022-11-11T11:09:19;7.93;;;5.33;;
15673;SDS011;7937;48.090;16.212;2022-11-11T11:13:10;9.80;;;6.17;;
15673;SDS011;7937;48.090;16.212;2022-11-11T11:16:40;7.87;;;5.33;;
15673;SDS011;7937;48.090;16.212;2022-11-11T11:20:14;7.90;;;5.13;;
15673;SDS011;7937;48.090;16.212;2022-11-11T11:23:45;7.23;;;5.07;;
15673;SDS011;7937;48.090;16.212;2022-11-11T11:27:06;8.50;;;4.40;;
15673;SDS011;7937;48.090;16.212;2022-11-11T11:30:27;7.87;;;4.17;;
15673;SDS011;7937;48.090;16.212;2022-11-11T11:33:55;8.70;;;3.87;;
15673;SDS011;7937;48.090;16.212;2022-11-11T11:37:16;4.80;;;2.83;;
15673;SDS011;7937;48.090;16.212;2022-11-11T11:40:54;5.53;;;3.00;;
15673;SDS011;7937;48.090;16.212;2022-11-11T11:44:31;7.17;;;3.47;;
15673;SDS011;7937;48.090;16.212;2022-11-11T11:56:05;6.50;;;2.90;;
15673;SDS011;7937;48.090;16.212;2022-11-11T12:03:16;3.47;;;2.17;;
15673;SDS011;7937;48.090;16.212;2022-11-11T12:07:02;3.20;;;1.83;;
15673;SDS011;7937;48.090;16.212;2022-11-11T12:10:41;3.50;;;1.67;;
15673;SDS011;7937;48.090;16.212;2022-11-11T12:18:06;4.87;;;2.17;;
15673;SDS011;7937;48.090;16.212;2022-11-11T12:44:34;4.47;;;3.43;;
15673;SDS011;7937;48.090;16.212;2022-11-11T12:48:27;8.27;;;3.63;;
15673;SDS011;7937;48.090;16.212;2022-11-11T12:52:44;4.67;;;2.80;;
15673;SDS011;7937;48.090;16.212;2022-11-11T12:55:53;5.50;;;3.17;;
15673;SDS011;7937;48.090;16.212;2022-11-11T13:03:05;4.83;;;3.40;;
15673;SDS011;7937;48.090;16.212;2022-11-11T13:10:18;5.27;;;2.60;;
15673;SDS011;7937;48.090;16.212;2022-11-11T13:14:20;5.90;;;2.80;;
15673;SDS011;7937;48.090;16.212;2022-11-11T13:18:07;7.27;;;2.80;;
15673;SDS011;7937;48.090;16.212;2022-11-11T13:21:46;3.67;;;2.17;;
15673;SDS011;7937;48.090;16.212;2022-11-11T13:25:12;5.80;;;2.93;;
15673;SDS011;7937;48.090;16.212;2022-11-11T13:28:41;6.63;;;2.40;;
15673;SDS011;7937;48.090;16.212;2022-11-11T13:32:09;3.80;;;2.27;;
15673;SDS011;7937;48.090;16.212;2022-11-11T13:35:51;3.53;;;2.40;;
15673;SDS011;7937;48.090;16.212;2022-11-11T13:43:22;3.93;;;2.10;;
15673;SDS011;7937;48.090;16.212;2022-11-11T13:46:48;2.93;;;2.30;;
15673;SDS011;7937;48.090;16.212;2022-11-11T13:50:13;3.53;;;2.00;;
15673;SDS011;7937;48.090;16.212;2022-11-11T13:53:45;5.13;;;2.20;;
15673;SDS011;7937;48.090;16.212;2022-11-11T13:57:17;5.03;;;2.07;;
15673;SDS011;7937;48.090;16.212;2022-11-11T14:00:41;3.10;;;1.90;;
15673;SDS011;7937;48.090;16.212;2022-11-11T14:04:03;2.63;;;1.90;;
15673;SDS011;7937;48.090;16.212;2022-11-11T14:11:06;4.10;;;2.20;;
15673;SDS011;7937;48.090;16.212;2022-11-11T14:14:53;3.00;;;1.90;;
15673;SDS011;7937;48.090;16.212;2022-11-11T14:28:41;3.30;;;1.77;;
15673;SDS011;7937;48.090;16.212;2022-11-11T14:39:53;1.10;;;1.00;;
15673;SDS011;7937;48.090;16.212;2022-11-11T14:53:50;2.13;;;0.93;;
15673;SDS011;7937;48.090;16.212;2022-11-11T14:57:18;4.37;;;1.67;;
15673;SDS011;7937;48.090;16.212;2022-11-11T15:00:59;1.83;;;1.17;;
15673;SDS011;7937;48.090;16.212;2022-11-11T15:04:35;1.70;;;1.10;;
15673;SDS011;7937;48.090;16.212;2022-11-11T15:08:02;2.97;;;2.00;;
15673;SDS011;7937;48.090;16.212;2022-11-11T15:16:01;1.17;;;1.00;;
15673;SDS011;7937;48.090;16.212;2022-11-11T15:19:29;1.83;;;1.23;;
15673;SDS011;7937;48.090;16.212;2022-11-11T15:23:20;2.07;;;1.37;;
15673;SDS011;7937;48.090;16.212;2022-11-11T15:27:42;2.70;;;1.40;;
15673;SDS011;7937;48.090;16.212;2022-11-11T15:30:46;2.87;;;1.63;;
15673;SDS011;7937;48.090;16.212;2022-11-11T15:34:22;3.63;;;1.77;;
15673;SDS011;7937;48.090;16.212;2022-11-11T15:37:53;3.50;;;1.60;;
15673;SDS011;7937;48.090;16.212;2022-11-11T15:41:26;2.57;;;1.67;;
15673;SDS011;7937;48.090;16.212;2022-11-11T15:44:54;2.47;;;1.70;;
15673;SDS011;7937;48.090;16.212;2022-11-11T15:49:00;4.30;;;1.63;;
15673;SDS011;7937;48.090;16.212;2022-11-11T15:52:02;1.70;;;1.33;;
15673;SDS011;7937;48.090;16.212;2022-11-11T15:55:24;4.73;;;2.13;;
15673;SDS011;7937;48.090;16.212;2022-11-11T15:58:46;4.70;;;2.43;;
15673;SDS011;7937;48.090;16.212;2022-11-11T16:02:11;3.87;;;2.07;;
15673;SDS011;7937;48.090;16.212;2022-11-11T16:05:37;3.73;;;2.50;;
15673;SDS011;7937;48.090;16.212;2022-11-11T16:08:57;4.20;;;2.60;;
15673;SDS011;7937;48.090;16.212;2022-11-11T16:12:21;3.83;;;2.33;;
15673;SDS011;7937;48.090;16.212;2022-11-11T16:15:46;3.60;;;1.77;;
15673;SDS011;7937;48.090;16.212;2022-11-11T16:19:26;2.20;;;1.30;;
15673;SDS011;7937;48.090;16.212;2022-11-11T16:23:08;2.73;;;1.60;;
15673;SDS011;7937;48.090;16.212;2022-11-11T16:26:33;3.77;;;1.77;;
15673;SDS011;7937;48.090;16.212;2022-11-11T16:29:54;2.37;;;1.73;;
15673;SDS011;7937;48.090;16.212;2022-11-11T16:36:57;2.33;;;1.87;;
15673;SDS011;7937;48.090;16.212;2022-11-11T16:40:33;5.33;;;1.40;;
15673;SDS011;7937;48.090;16.212;2022-11-11T16:43:55;1.67;;;1.37;;
15673;SDS011;7937;48.090;16.212;2022-11-11T16:50:57;2.73;;;1.40;;
15673;SDS011;7937;48.090;16.212;2022-11-11T16:54:27;4.53;;;1.63;;
15673;SDS011;7937;48.090;16.212;2022-11-11T16:57:51;6.37;;;2.53;;
15673;SDS011;7937;48.090;16.212;2022-11-11T17:01:12;3.53;;;2.17;;
15673;SDS011;7937;48.090;16.212;2022-11-11T17:04:48;5.13;;;1.80;;
15673;SDS011;7937;48.090;16.212;2022-11-11T17:08:31;4.93;;;1.60;;
15673;SDS011;7937;48.090;16.212;2022-11-11T17:11:55;1.67;;;1.27;;
15673;SDS011;7937;48.090;16.212;2022-11-11T17:15:18;1.43;;;1.27;;
15673;SDS011;7937;48.090;16.212;2022-11-11T17:18:40;4.07;;;2.90;;
15673;SDS011;7937;48.090;16.212;2022-11-11T17:22:04;6.37;;;3.77;;
15673;SDS011;7937;48.090;16.212;2022-11-11T17:25:26;9.37;;;5.93;;
15673;SDS011;7937;48.090;16.212;2022-11-11T17:28:47;14.33;;;8.03;;
15673;SDS011;7937;48.090;16.212;2022-11-11T17:32:08;17.83;;;11.00;;
15673;SDS011;7937;48.090;16.212;2022-11-11T17:35:28;11.73;;;7.83;;
15673;SDS011;7937;48.090;16.212;2022-11-11T17:38:49;10.87;;;6.10;;
15673;SDS011;7937;48.090;16.212;2022-11-11T17:42:11;6.17;;;4.37;;
15673;SDS011;7937;48.090;16.212;2022-11-11T17:45:34;9.43;;;4.53;;
15673;SDS011;7937;48.090;16.212;2022-11-11T17:48:55;4.73;;;3.20;;
15673;SDS011;7937;48.090;16.212;2022-11-11T17:52:16;3.97;;;2.40;;
15673;SDS011;7937;48.090;16.212;2022-11-11T17:55:37;3.13;;;1.77;;
15673;SDS011;7937;48.090;16.212;2022-11-11T17:59:03;1.80;;;1.27;;
15673;SDS011;7937;48.090;16.212;2022-11-11T18:02:27;2.43;;;0.90;;
15673;SDS011;7937;48.090;16.212;2022-11-11T18:05:52;1.10;;;1.00;;
15673;SDS011;7937;48.090;16.212;2022-11-11T18:09:13;1.67;;;1.20;;
15673;SDS011;7937;48.090;16.212;2022-11-11T18:12:37;2.47;;;1.10;;
15673;SDS011;7937;48.090;16.212;2022-11-11T18:15:58;3.83;;;1.40;;
15673;SDS011;7937;48.090;16.212;2022-11-11T18:19:25;1.63;;;1.40;;
15673;SDS011;7937;48.090;16.212;2022-11-11T18:22:46;3.43;;;1.53;;
15673;SDS011;7937;48.090;16.212;2022-11-11T18:26:07;2.23;;;1.30;;
15673;SDS011;7937;48.090;16.212;2022-11-11T18:29:28;1.70;;;1.27;;
15673;SDS011;7937;48.090;16.212;2022-11-11T18:32:51;1.30;;;1.20;;
15673;SDS011;7937;48.090;16.212;2022-11-11T18:36:15;1.47;;;1.20;;
15673;SDS011;7937;48.090;16.212;2022-11-11T18:39:39;2.07;;;1.20;;
15673;SDS011;7937;48.090;16.212;2022-11-11T18:43:00;1.70;;;1.60;;
15673;SDS011;7937;48.090;16.212;2022-11-11T18:46:22;1.50;;;1.20;;
15673;SDS011;7937;48.090;16.212;2022-11-11T18:49:45;2.83;;;1.27;;
15673;SDS011;7937;48.090;16.212;2022-11-11T18:53:06;1.80;;;1.30;;
15673;SDS011;7937;48.090;16.212;2022-11-11T18:56:28;2.70;;;1.33;;
15673;SDS011;7937;48.090;16.212;2022-11-11T18:59:50;1.70;;;1.40;;
15673;SDS011;7937;48.090;16.212;2022-11-11T19:03:11;1.43;;;1.30;;
15673;SDS011;7937;48.090;16.212;2022-11-11T19:06:34;1.30;;;1.20;;
15673;SDS011;7937;48.090;16.212;2022-11-11T19:09:58;1.97;;;1.77;;
15673;SDS011;7937;48.090;16.212;2022-11-11T19:13:20;1.67;;;1.30;;
15673;SDS011;7937;48.090;16.212;2022-11-11T19:16:42;1.70;;;1.03;;
15673;SDS011;7937;48.090;16.212;2022-11-11T19:20:03;1.13;;;1.10;;
15673;SDS011;7937;48.090;16.212;2022-11-11T19:23:28;1.77;;;0.90;;
15673;SDS011;7937;48.090;16.212;2022-11-11T19:26:49;4.17;;;1.00;;
15673;SDS011;7937;48.090;16.212;2022-11-11T19:30:11;3.10;;;1.00;;
15673;SDS011;7937;48.090;16.212;2022-11-11T19:33:32;2.80;;;1.10;;
15673;SDS011;7937;48.090;16.212;2022-11-11T19:36:55;3.27;;;1.23;;
15673;SDS011;7937;48.090;16.212;2022-11-11T19:40:16;1.73;;;0.93;;
15673;SDS011;7937;48.090;16.212;2022-11-11T19:43:38;1.23;;;1.07;;
15673;SDS011;7937;48.090;16.212;2022-11-11T19:46:59;1.30;;;1.00;;
15673;SDS011;7937;48.090;16.212;2022-11-11T19:50:20;3.97;;;1.10;;
15673;SDS011;7937;48.090;16.212;2022-11-11T19:53:42;1.47;;;1.37;;
15673;SDS011;7937;48.090;16.212;2022-11-11T19:57:03;1.63;;;1.20;;
15673;SDS011;7937;48.090;16.212;2022-11-11T20:00:25;2.60;;;1.70;;
15673;SDS011;7937;48.090;16.212;2022-11-11T20:03:47;2.57;;;1.07;;
15673;SDS011;7937;48.090;16.212;2022-11-11T20:07:09;1.80;;;1.00;;
15673;SDS011;7937;48.090;16.212;2022-11-11T20:10:37;4.00;;;1.33;;
15673;SDS011;7937;48.090;16.212;2022-11-11T20:14:01;1.33;;;1.00;;
15673;SDS011;7937;48.090;16.212;2022-11-11T20:17:24;4.77;;;1.23;;
15673;SDS011;7937;48.090;16.212;2022-11-11T20:20:45;1.10;;;1.00;;
15673;SDS011;7937;48.090;16.212;2022-11-11T20:24:07;1.53;;;1.23;;
15673;SDS011;7937;48.090;16.212;2022-11-11T20:27:28;2.67;;;1.40;;
15673;SDS011;7937;48.090;16.212;2022-11-11T20:30:48;1.97;;;1.30;;
15673;SDS011;7937;48.090;16.212;2022-11-11T20:34:09;1.90;;;1.10;;
15673;SDS011;7937;48.090;16.212;2022-11-11T20:37:30;1.57;;;0.90;;
15673;SDS011;7937;48.090;16.212;2022-11-11T20:40:58;2.43;;;0.90;;
15673;SDS011;7937;48.090;16.212;2022-11-11T20:44:29;1.47;;;0.97;;
15673;SDS011;7937;48.090;16.212;2022-11-11T20:47:51;1.27;;;1.00;;
15673;SDS011;7937;48.090;16.212;2022-11-11T20:51:14;0.90;;;0.87;;
15673;SDS011;7937;48.090;16.212;2022-11-11T20:54:37;1.03;;;0.70;;
15673;SDS011;7937;48.090;16.212;2022-11-11T20:57:59;0.60;;;0.60;;
15673;SDS011;7937;48.090;16.212;2022-11-11T21:01:21;2.10;;;0.70;;
15673;SDS011;7937;48.090;16.212;2022-11-11T21:04:45;0.87;;;0.50;;
15673;SDS011;7937;48.090;16.212;2022-11-11T21:08:06;1.50;;;0.50;;
15673;SDS011;7937;48.090;16.212;2022-11-11T21:11:28;0.50;;;0.50;;
15673;SDS011;7937;48.090;16.212;2022-11-11T21:14:49;1.37;;;0.63;;
15673;SDS011;7937;48.090;16.212;2022-11-11T21:18:10;4.00;;;0.73;;
15673;SDS011;7937;48.090;16.212;2022-11-11T21:21:32;5.30;;;1.07;;
15673;SDS011;7937;48.090;16.212;2022-11-11T21:24:54;2.20;;;0.57;;
15673;SDS011;7937;48.090;16.212;2022-11-11T21:28:15;0.33;;;0.33;;
15673;SDS011;7937;48.090;16.212;2022-11-11T21:31:36;2.20;;;0.53;;
15673;SDS011;7937;48.090;16.212;2022-11-11T21:35:04;0.70;;;0.50;;
15673;SDS011;7937;48.090;16.212;2022-11-11T21:38:25;1.70;;;0.90;;
15673;SDS011;7937;48.090;16.212;2022-11-11T21:41:46;1.37;;;0.70;;
15673;SDS011;7937;48.090;16.212;2022-11-11T21:45:07;0.63;;;0.63;;
15673;SDS011;7937;48.090;16.212;2022-11-11T21:48:29;0.47;;;0.43;;
15673;SDS011;7937;48.090;16.212;2022-11-11T21:51:52;0.80;;;0.50;;
15673;SDS011;7937;48.090;16.212;2022-11-11T21:55:13;1.23;;;0.70;;
15673;SDS011;7937;48.090;16.212;2022-11-11T21:58:33;1.40;;;0.43;;
15673;SDS011;7937;48.090;16.212;2022-11-11T22:01:54;1.23;;;0.40;;
15673;SDS011;7937;48.090;16.212;2022-11-11T22:05:15;0.30;;;0.30;;
15673;SDS011;7937;48.090;16.212;2022-11-11T22:08:36;0.80;;;0.60;;
15673;SDS011;7937;48.090;16.212;2022-11-11T22:11:57;0.30;;;0.30;;
15673;SDS011;7937;48.090;16.212;2022-11-11T22:15:18;1.23;;;0.50;;
15673;SDS011;7937;48.090;16.212;2022-11-11T22:18:39;3.63;;;0.60;;
15673;SDS011;7937;48.090;16.212;2022-11-11T22:22:03;1.93;;;0.53;;
15673;SDS011;7937;48.090;16.212;2022-11-11T22:25:24;2.17;;;0.53;;
15673;SDS011;7937;48.090;16.212;2022-11-11T22:28:46;1.80;;;0.50;;
15673;SDS011;7937;48.090;16.212;2022-11-11T22:32:13;0.60;;;0.40;;
15673;SDS011;7937;48.090;16.212;2022-11-11T22:35:34;1.30;;;0.70;;
15673;SDS011;7937;48.090;16.212;2022-11-11T22:38:55;0.53;;;0.53;;